.
WxDataArchive / Data Records for 2010-09-15
2010-09-14 September 2010 2010-09-16

Data Records for Wednesday, 15 September 2010

Time	Temp	Chill	HIndex	Humid	Dewpt	 Wind 	HiWind	WindDir	Rain 	Barom 
-----	----	-----	------	-----	-----	------	------	-------	-----	----- 
00:00	61.0	61.0	61.0	66	49.6	0	1	158	0.00	30.114 
00:05	61.0	61.0	61.0	67	50.0	0	1	158	0.00	30.114 
00:10	60.9	60.9	60.9	67	49.9	0	0	---	0.00	30.114 
00:15	60.7	60.7	60.7	67	49.7	0	0	---	0.00	30.115 
00:20	60.5	60.5	60.5	68	49.9	0	0	---	0.00	30.115 
00:25	60.4	60.4	60.4	68	49.8	0	0	---	0.00	30.115 
00:30	60.4	60.4	60.4	68	49.8	0	1	225	0.00	30.118 
00:35	60.4	60.4	60.4	68	49.8	0	1	225	0.00	30.118 
00:40	60.4	60.4	60.4	68	49.8	0	1	225	0.00	30.118 
00:45	60.2	60.2	60.2	68	49.6	0	1	225	0.00	30.117 
00:50	59.9	59.9	59.9	68	49.3	0	0	---	0.00	30.117 
00:55	59.8	59.8	59.8	69	49.6	0	0	---	0.00	30.117 
01:00	59.5	59.5	59.5	69	49.3	0	0	---	0.00	30.118 
01:05	59.3	59.3	59.3	69	49.1	0	0	---	0.00	30.118 
01:10	59.2	59.2	59.2	70	49.4	0	0	---	0.00	30.118 
01:15	59.2	59.2	59.2	70	49.4	0	0	---	0.00	30.118 
01:20	59.0	59.0	59.0	70	49.2	0	0	---	0.00	30.118 
01:25	58.7	58.7	58.7	71	49.3	0	0	---	0.00	30.118 
01:30	58.6	58.6	58.6	71	49.2	0	0	---	0.00	30.120 
01:35	58.4	58.4	58.4	72	49.4	0	0	---	0.00	30.120 
01:40	58.1	58.1	58.1	73	49.5	0	1	225	0.00	30.120 
01:45	58.0	58.0	58.0	73	49.4	0	1	225	0.00	30.122 
01:50	57.8	57.8	57.8	73	49.2	0	0	---	0.00	30.122 
01:55	57.5	57.5	57.5	74	49.3	0	0	---	0.00	30.122 
02:00	57.3	57.3	57.3	74	49.1	0	0	---	0.00	30.132 
02:05	57.0	57.0	57.0	75	49.2	0	2	202	0.00	30.132 
02:10	56.9	56.9	56.9	75	49.1	0	0	---	0.00	30.132 
02:15	56.7	56.7	56.7	76	49.2	0	0	---	0.00	30.132 
02:20	56.6	56.6	56.6	76	49.1	0	0	---	0.00	30.132 
02:25	56.5	56.5	56.5	77	49.4	0	0	---	0.00	30.132 
02:30	56.3	56.3	56.3	77	49.2	0	1	202	0.00	30.134 
02:35	56.2	56.2	56.2	77	49.1	0	0	---	0.00	30.134 
02:40	56.2	56.2	56.2	77	49.1	0	0	---	0.00	30.134 
02:45	56.0	56.0	56.0	77	48.9	0	1	202	0.00	30.134 
02:50	55.9	55.9	55.9	78	49.1	0	1	202	0.00	30.134 
02:55	55.9	55.9	55.9	78	49.1	0	1	202	0.00	30.134 
03:00	55.7	55.7	55.7	78	48.9	0	0	---	0.00	30.135 
03:05	55.6	55.6	55.6	78	48.8	0	0	---	0.00	30.135 
03:10	55.3	55.3	55.3	78	48.6	0	0	---	0.00	30.135 
03:15	55.1	55.1	55.1	79	48.7	0	0	---	0.00	30.137 
03:20	54.8	54.8	54.8	80	48.7	0	0	---	0.00	30.137 
03:25	54.7	54.7	54.7	81	49.0	0	1	202	0.00	30.137 
03:30	54.7	54.7	54.7	81	49.0	0	1	202	0.00	30.135 
03:35	54.5	54.5	54.5	81	48.8	0	0	---	0.00	30.135 
03:40	54.4	54.4	54.4	81	48.7	0	0	---	0.00	30.135 
03:45	54.2	54.2	54.2	82	48.8	0	0	---	0.00	30.134 
03:50	54.2	54.2	54.2	83	49.1	0	1	202	0.00	30.134 
03:55	54.2	54.2	54.2	83	49.1	0	1	202	0.00	30.134 
04:00	54.2	54.2	54.2	83	49.1	0	1	202	0.00	30.138 
04:05	54.2	54.2	54.2	83	49.1	0	0	---	0.00	30.138 
04:10	54.2	54.2	54.2	83	49.1	0	1	202	0.00	30.138 
04:15	54.1	54.1	54.1	83	49.1	0	1	202	0.00	30.136 
04:20	54.1	54.1	54.1	84	49.4	0	1	202	0.00	30.136 
04:25	54.1	54.1	54.1	84	49.4	0	1	202	0.00	30.136 
04:30	54.1	54.1	54.1	84	49.4	0	1	202	0.00	30.137 
04:35	53.9	53.9	53.9	84	49.2	0	1	202	0.00	30.137 
04:40	53.9	53.9	53.9	84	49.2	0	1	202	0.00	30.137 
04:45	53.8	53.8	53.8	84	49.1	0	0	---	0.00	30.148 
04:50	53.6	53.6	53.6	84	48.9	0	0	---	0.00	30.148 
04:55	53.3	53.3	53.3	84	48.6	0	0	---	0.00	30.148 
05:00	53.2	53.2	53.2	85	48.8	0	0	---	0.00	30.155 
05:05	52.9	52.9	52.9	85	48.5	0	0	---	0.00	30.155 
05:10	52.6	52.6	52.6	85	48.2	0	0	---	0.00	30.155 
05:15	52.5	52.5	52.5	86	48.4	0	0	---	0.00	30.148 
05:20	52.3	52.3	52.3	87	48.5	0	0	---	0.00	30.148 
05:25	52.5	52.5	52.5	88	49.0	0	0	---	0.00	30.148 
05:30	52.5	52.5	52.5	88	49.0	0	0	---	0.00	30.150 
05:35	52.6	52.6	52.6	88	49.1	0	1	202	0.00	30.150 
05:40	52.8	52.8	52.8	88	49.3	0	1	202	0.00	30.150 
05:45	52.8	52.8	52.8	88	49.3	0	0	---	0.00	30.153 
05:50	52.8	52.8	52.8	88	49.3	0	0	---	0.00	30.153 
05:55	52.8	52.8	52.8	88	49.3	0	1	202	0.00	30.153 
06:00	52.8	52.8	52.8	88	49.3	0	0	---	0.00	30.152 
06:05	52.6	52.6	52.6	88	49.1	0	0	---	0.00	30.152 
06:10	52.6	52.6	52.6	88	49.1	0	1	202	0.00	30.152 
06:15	52.5	52.5	52.5	88	49.0	0	0	---	0.00	30.156 
06:20	52.5	52.5	52.5	88	49.0	0	0	---	0.00	30.156 
06:25	52.3	52.3	52.3	88	48.9	0	0	---	0.00	30.156 
06:30	52.2	52.2	52.2	88	48.8	0	0	---	0.00	30.160 
06:35	52.0	52.0	52.0	88	48.6	0	0	---	0.00	30.160 
06:40	52.0	52.0	52.0	89	48.9	0	1	202	0.00	30.160 
06:45	52.0	52.0	52.0	89	48.9	0	0	---	0.00	30.156 
06:50	52.0	52.0	52.0	89	48.9	0	0	---	0.00	30.156 
06:55	51.9	51.9	51.9	89	48.8	0	0	---	0.00	30.156 
07:00	51.7	51.7	51.7	89	48.6	0	0	---	0.00	30.171 
07:05	51.7	51.7	51.7	89	48.6	0	0	---	0.00	30.171 
07:10	51.6	51.6	51.6	89	48.5	0	0	---	0.00	30.171 
07:15	51.6	51.6	51.6	89	48.5	0	0	---	0.00	30.175 
07:20	51.6	51.6	51.6	89	48.5	0	1	202	0.00	30.175 
07:25	51.7	51.7	51.7	89	48.6	0	1	158	0.00	30.175 
07:30	51.9	51.9	51.9	88	48.5	0	2	158	0.00	30.175 
07:35	51.9	51.9	51.9	88	48.5	0	1	158	0.00	30.175 
07:40	51.9	51.9	51.9	88	48.5	0	1	158	0.00	30.175 
07:45	51.9	51.9	51.9	88	48.5	0	1	158	0.00	30.186 
07:50	51.9	51.9	51.9	88	48.5	0	1	158	0.00	30.186 
07:55	52.0	52.0	52.0	88	48.6	0	3	158	0.00	30.186 
08:00	52.2	52.2	52.2	87	48.4	0	3	158	0.00	30.179 
08:05	52.2	52.2	52.2	87	48.4	0	1	158	0.00	30.179 
08:10	52.5	52.5	52.5	87	48.7	1	3	158	0.00	30.179 
08:15	52.6	52.6	52.6	86	48.5	1	3	68	0.00	30.178 
08:20	52.9	52.9	52.9	85	48.5	1	3	68	0.00	30.178 
08:25	53.3	53.3	53.3	84	48.6	1	4	112	0.00	30.178 
08:30	53.9	53.9	53.9	82	48.5	1	3	112	0.00	30.177 
08:35	54.2	54.2	54.2	81	48.5	1	4	90	0.00	30.177 
08:40	54.4	54.4	54.4	81	48.7	1	4	90	0.00	30.177 
08:45	54.7	54.7	54.7	80	48.7	1	4	90	0.00	30.179 
08:50	54.8	54.8	54.8	81	49.1	1	3	90	0.00	30.179 
08:55	55.0	55.0	55.0	80	48.9	1	5	90	0.00	30.179 
09:00	55.1	55.1	55.1	79	48.7	2	4	90	0.00	30.187 
09:05	55.3	55.3	55.3	79	48.9	1	3	90	0.00	30.187 
09:10	55.6	55.6	55.6	78	48.8	2	5	90	0.00	30.187 
09:15	55.9	55.9	55.9	79	49.5	1	4	90	0.00	30.183 
09:20	56.2	56.2	56.2	77	49.1	2	6	90	0.00	30.183 
09:25	56.7	56.7	56.7	75	48.9	2	5	90	0.00	30.183 
09:30	57.0	57.0	57.0	73	48.4	2	7	90	0.00	30.196 
09:35	57.5	57.5	57.5	73	48.9	2	5	68	0.00	30.196 
09:40	58.0	58.0	58.0	72	49.0	2	5	112	0.00	30.196 
09:45	58.4	58.4	58.4	71	49.0	2	5	90	0.00	30.199 
09:50	58.9	58.9	58.9	71	49.5	1	3	90	0.00	30.199 
09:55	59.3	59.3	59.3	69	49.1	1	4	90	0.00	30.199 
10:00	59.9	59.9	59.9	68	49.3	2	6	90	0.00	30.202 
10:05	60.7	60.7	60.7	66	49.3	1	3	112	0.00	30.202 
10:10	61.3	61.3	61.3	65	49.4	2	5	68	0.00	30.202 
10:15	61.8	61.8	61.8	64	49.5	2	5	90	0.00	30.205 
10:20	62.6	62.6	62.6	63	49.8	1	4	90	0.00	30.205 
10:25	62.9	62.9	62.9	62	49.7	2	6	90	0.00	30.205 
10:30	63.1	63.1	63.1	62	49.9	3	7	90	0.00	30.205 
10:35	63.5	63.5	63.5	60	49.4	2	6	90	0.00	30.205 
10:40	63.9	63.9	63.9	60	49.7	3	9	90	0.00	30.205 
10:45	64.5	64.5	64.5	57	48.9	3	6	112	0.00	30.203 
10:50	65.0	65.0	65.0	57	49.4	1	4	90	0.00	30.203 
10:55	65.5	65.5	65.5	56	49.4	2	6	90	0.00	30.203 
11:00	66.1	66.1	66.1	54	49.0	1	3	68	0.00	30.194 
11:05	66.8	66.8	66.8	51	48.1	2	5	135	0.00	30.194 
11:10	67.1	67.1	67.1	50	47.8	3	6	90	0.00	30.194 
11:15	67.3	67.3	67.3	51	48.5	2	7	90	0.00	30.188 
11:20	67.4	67.4	67.4	50	48.1	2	6	90	0.00	30.188 
11:25	67.9	67.9	67.9	50	48.6	2	5	90	0.00	30.188 
11:30	68.1	68.1	68.1	47	47.1	3	7	90	0.00	30.186 
11:35	68.4	68.4	68.4	48	47.9	2	5	90	0.00	30.186 
11:40	68.9	68.9	68.9	48	48.4	2	6	112	0.00	30.186 
11:45	69.4	69.4	69.4	46	47.7	2	6	90	0.00	30.183 
11:50	69.8	69.8	69.8	46	48.1	1	4	90	0.00	30.183 
11:55	70.3	70.3	70.3	47	49.1	2	5	90	0.00	30.183 
12:00	70.8	70.8	70.8	46	49.0	2	6	90	0.00	30.169 
12:05	70.6	70.6	70.6	44	47.6	4	8	90	0.00	30.169 
12:10	70.8	70.8	70.8	43	47.2	3	7	90	0.00	30.169 
12:15	71.1	71.1	71.1	45	48.7	2	5	90	0.00	30.164 
12:20	71.8	71.8	71.8	43	48.1	1	6	90	0.00	30.164 
12:25	72.3	72.3	72.3	43	48.5	2	6	90	0.00	30.164 
12:30	72.7	72.7	72.7	42	48.3	2	6	68	0.00	30.152 
12:35	73.0	73.0	73.0	41	47.9	1	6	90	0.00	30.152 
12:40	73.0	73.0	73.0	40	47.2	3	7	90	0.00	30.152 
12:45	73.0	73.0	73.0	40	47.2	2	7	90	0.00	30.149 
12:50	73.3	73.3	73.3	40	47.5	1	5	90	0.00	30.149 
12:55	73.9	73.9	73.9	39	47.4	2	9	90	0.00	30.149 
13:00	74.0	74.0	74.0	39	47.5	2	6	90	0.00	30.139 
13:05	73.9	73.9	73.9	38	46.7	2	5	90	0.00	30.139 
13:10	74.2	74.2	74.2	40	48.3	2	6	112	0.00	30.139 
13:15	74.7	74.7	74.7	38	47.4	2	7	112	0.00	30.135 
13:20	75.1	75.1	77.4	38	47.7	1	4	90	0.00	30.135 
13:25	75.1	75.1	77.4	37	47.0	2	5	90	0.00	30.135 
13:30	74.9	74.9	74.9	39	48.3	2	7	68	0.00	30.125 
13:35	75.3	75.3	77.4	36	46.5	1	4	90	0.00	30.125 
13:40	75.8	75.8	77.6	36	46.9	2	6	68	0.00	30.125 
13:45	76.1	76.1	77.7	37	47.9	1	4	90	0.00	30.121 
13:50	76.1	76.1	77.7	36	47.2	2	4	68	0.00	30.121 
13:55	76.1	76.1	77.6	35	46.4	2	6	90	0.00	30.121 
14:00	76.1	76.1	77.7	36	47.2	2	6	90	0.00	30.113 
14:05	76.0	76.0	77.6	36	47.1	3	6	90	0.00	30.113 
14:10	76.0	76.0	77.6	35	46.4	2	4	90	0.00	30.113 
14:15	76.3	76.3	77.7	36	47.4	1	4	90	0.00	30.105 
14:20	76.5	76.5	77.8	36	47.5	3	6	90	0.00	30.105 
14:25	76.5	76.5	77.8	35	46.8	2	4	90	0.00	30.105 
14:30	76.3	76.3	77.7	35	46.6	2	7	90	0.00	30.093 
14:35	76.5	76.5	77.8	36	47.5	1	4	90	0.00	30.093 
14:40	76.8	76.8	77.8	34	46.3	2	5	68	0.00	30.093 
14:45	77.2	77.2	78.1	35	47.4	2	6	90	0.00	30.090 
14:50	77.4	77.4	78.0	33	46.0	1	4	90	0.00	30.090 
14:55	77.9	77.9	78.2	32	45.6	1	3	90	0.00	30.090 
15:00	78.1	78.1	78.4	34	47.4	1	5	158	0.00	30.085 
15:05	78.1	78.1	78.2	31	45.0	2	5	112	0.00	30.085 
15:10	78.1	78.1	78.4	33	46.6	1	3	90	0.00	30.085 
15:15	78.3	78.3	78.4	32	46.0	2	6	90	0.00	30.077 
15:20	78.6	78.6	78.7	34	47.9	1	3	68	0.00	30.077 
15:25	78.8	78.8	78.6	31	45.6	2	6	68	0.00	30.077 
15:30	78.8	78.8	78.6	32	46.4	2	4	112	0.00	30.076 
15:35	79.0	79.0	78.7	31	45.8	0	2	90	0.00	30.076 
15:40	79.2	79.2	78.8	31	45.9	1	6	90	0.00	30.076 
15:45	79.2	79.2	78.8	31	45.9	2	4	90	0.00	30.075 
15:50	79.2	79.2	78.9	32	46.8	1	3	90	0.00	30.075 
15:55	79.2	79.2	78.9	32	46.8	0	2	90	0.00	30.075 
16:00	79.0	79.0	78.8	33	47.4	0	3	90	0.00	30.071 
16:05	79.2	79.2	78.9	32	46.8	1	3	90	0.00	30.071 
16:10	79.4	79.4	79.0	32	46.9	1	3	90	0.00	30.071 
16:15	79.6	79.6	79.1	32	47.1	1	4	90	0.00	30.060 
16:20	79.6	79.6	79.0	31	46.3	1	3	90	0.00	30.060 
16:25	79.4	79.4	79.0	32	46.9	1	5	90	0.00	30.060 
16:30	79.2	79.2	78.9	32	46.8	1	4	248	0.00	30.058 
16:35	79.2	79.2	78.9	33	47.6	2	5	90	0.00	30.058 
16:40	79.4	79.4	79.0	33	47.8	2	4	68	0.00	30.058 
16:45	79.6	79.6	79.2	33	47.9	1	3	90	0.00	30.057 
16:50	79.8	79.8	79.3	33	48.1	1	4	90	0.00	30.057 
16:55	79.8	79.8	79.3	33	48.1	1	3	90	0.00	30.057 
17:00	79.6	79.6	79.2	33	47.9	2	6	90	0.00	30.049 
17:05	79.4	79.4	79.0	33	47.8	1	3	90	0.00	30.049 
17:10	79.4	79.4	79.0	33	47.8	2	5	90	0.00	30.049 
17:15	79.2	79.2	78.9	33	47.6	1	3	90	0.00	30.042 
17:20	79.2	79.2	79.1	35	49.2	1	3	90	0.00	30.042 
17:25	79.2	79.2	78.9	33	47.6	1	4	90	0.00	30.042 
17:30	79.2	79.2	79.0	34	48.4	1	5	90	0.00	30.032 
17:35	79.2	79.2	79.0	34	48.4	0	3	90	0.00	30.032 
17:40	79.0	79.0	78.9	34	48.2	1	6	90	0.00	30.032 
17:45	78.8	78.8	78.8	35	48.8	1	4	90	0.00	30.025 
17:50	78.8	78.8	78.8	35	48.8	1	4	90	0.00	30.025 
17:55	78.6	78.6	78.7	35	48.6	2	4	90	0.00	30.025 
18:00	78.5	78.5	78.7	35	48.5	1	4	112	0.00	30.018 
18:05	78.3	78.3	78.5	34	47.6	2	4	90	0.00	30.018 
18:10	78.3	78.3	78.5	34	47.6	2	7	112	0.00	30.018 
18:15	78.3	78.3	78.5	34	47.6	2	4	68	0.00	30.019 
18:20	78.1	78.1	78.5	35	48.2	2	4	90	0.00	30.019 
18:25	78.1	78.1	78.5	36	48.9	1	3	90	0.00	30.019 
18:30	77.9	77.9	78.5	37	49.5	1	3	90	0.00	30.014 
18:35	77.6	77.6	78.4	37	49.2	1	3	90	0.00	30.014 
18:40	77.4	77.4	78.3	38	49.8	1	3	90	0.00	30.014 
18:45	77.2	77.2	78.2	38	49.6	2	5	90	0.00	30.010 
18:50	77.0	77.0	78.2	39	50.1	2	5	90	0.00	30.010 
18:55	76.8	76.8	78.1	39	49.9	1	5	68	0.00	30.010 
19:00	76.5	76.5	78.0	39	49.7	1	4	68	0.00	30.003 
19:05	76.3	76.3	77.9	40	50.2	1	3	68	0.00	30.003 
19:10	76.1	76.1	77.9	40	50.0	1	3	68	0.00	30.003 
19:15	76.0	76.0	77.9	41	50.6	0	2	68	0.00	30.004 
19:20	75.6	75.6	77.7	42	50.9	0	1	68	0.00	30.004 
19:25	75.3	75.3	77.7	43	51.2	0	2	68	0.00	30.004 
19:30	74.9	74.9	74.9	43	50.9	0	2	68	0.00	30.000 
19:35	74.6	74.6	74.6	43	50.6	1	2	68	0.00	30.000 
19:40	74.4	74.4	74.4	43	50.4	1	3	68	0.00	30.000 
19:45	74.0	74.0	74.0	43	50.1	1	3	68	0.00	29.994 
19:50	73.9	73.9	73.9	43	50.0	1	3	68	0.00	29.994 
19:55	73.9	73.9	73.9	43	50.0	1	3	68	0.00	29.994 
20:00	73.7	73.7	73.7	43	49.8	1	2	68	0.00	29.984 
20:05	73.5	73.5	73.5	43	49.6	1	4	68	0.00	29.984 
20:10	73.5	73.5	73.5	43	49.6	1	3	68	0.00	29.984 
20:15	73.3	73.3	73.3	43	49.4	1	5	68	0.00	29.981 
20:20	73.3	73.3	73.3	43	49.4	1	5	68	0.00	29.981 
20:25	73.2	73.2	73.2	43	49.3	1	3	68	0.00	29.981 
20:30	73.0	73.0	73.0	43	49.2	1	5	90	0.00	29.981 
20:35	72.8	72.8	72.8	44	49.6	1	5	90	0.00	29.981 
20:40	72.7	72.7	72.7	44	49.5	1	6	68	0.00	29.981 
20:45	72.5	72.5	72.5	44	49.3	1	3	68	0.00	29.977 
20:50	72.3	72.3	72.3	45	49.8	1	3	68	0.00	29.977 
20:55	72.1	72.1	72.1	45	49.6	1	3	112	0.00	29.977 
21:00	72.0	72.0	72.0	45	49.5	1	4	68	0.00	29.980 
21:05	71.8	71.8	71.8	45	49.3	1	3	68	0.00	29.980 
21:10	71.6	71.6	71.6	46	49.7	1	3	68	0.00	29.980 
21:15	71.5	71.5	71.5	46	49.6	1	3	68	0.00	29.969 
21:20	71.5	71.5	71.5	46	49.6	0	2	68	0.00	29.969 
21:25	71.5	71.5	71.5	46	49.6	1	6	68	0.00	29.969 
21:30	71.5	71.5	71.5	46	49.6	1	3	90	0.00	29.965 
21:35	71.5	71.5	71.5	46	49.6	2	5	68	0.00	29.965 
21:40	71.3	71.3	71.3	46	49.4	2	4	90	0.00	29.965 
21:45	71.3	71.3	71.3	46	49.4	1	4	68	0.00	29.964 
21:50	70.9	70.9	70.9	47	49.7	1	3	68	0.00	29.964 
21:55	70.8	70.8	70.8	48	50.1	1	2	68	0.00	29.964 
22:00	70.6	70.6	70.6	48	49.9	1	4	68	0.00	29.955 
22:05	70.3	70.3	70.3	48	49.7	1	4	68	0.00	29.955 
22:10	70.1	70.1	70.1	49	50.0	1	4	68	0.00	29.955 
22:15	69.9	69.9	69.9	49	49.9	1	6	90	0.00	29.944 
22:20	69.8	69.8	69.8	50	50.3	1	4	112	0.00	29.944 
22:25	69.6	69.6	69.6	51	50.7	1	3	112	0.00	29.944 
22:30	69.3	69.3	69.3	52	50.9	1	4	68	0.00	29.940 
22:35	68.9	68.9	68.9	52	50.5	1	3	68	0.00	29.940 
22:40	68.6	68.6	68.6	53	50.8	1	5	112	0.00	29.940 
22:45	68.4	68.4	68.4	53	50.6	1	5	112	0.00	29.933 
22:50	68.3	68.3	68.3	54	51.0	1	3	90	0.00	29.933 
22:55	68.1	68.1	68.1	55	51.3	2	4	90	0.00	29.933 
23:00	67.9	67.9	67.9	56	51.6	2	5	90	0.00	29.928 
23:05	67.9	67.9	67.9	57	52.1	1	3	90	0.00	29.928 
23:10	67.8	67.8	67.8	57	52.0	2	5	90	0.00	29.928 
23:15	67.8	67.8	67.8	58	52.5	1	4	90	0.00	29.924 
23:20	67.6	67.6	67.6	59	52.8	1	3	90	0.00	29.924 
23:25	67.6	67.6	67.6	59	52.8	1	4	68	0.00	29.924 
23:30	67.4	67.4	67.4	59	52.6	1	4	90	0.00	29.923 
23:35	67.4	67.4	67.4	60	53.0	2	4	90	0.00	29.923 
23:40	67.3	67.3	67.3	61	53.4	2	4	90	0.00	29.923 
23:45	66.9	66.9	66.9	62	53.4	2	5	90	0.00	29.909 
23:50	66.8	66.8	66.8	62	53.4	2	4	68	0.00	29.909 
23:55	66.6	66.6	66.6	62	53.2	1	3	68	0.00	29.909 

CoCoRaHS
IN-AL-39
A2 Web Hosting
Creative Commons License
GoDaddy
search engine by freefind advanced

loaded 2018-11-20 02:40:13 • last modified 2010-11-18 10:43:29
Privacy PolicyDisclaimer
• wx.awcolley.com is powered by PmWiki v.2002016 •
• all content (unless otherwise noted) © 2018 A W Colley